sensor_id;sensor_type;location;lat;lon;timestamp;P1;durP1;ratioP1;P2;durP2;ratioP2
74632;SDS011;63139;52.018;8.552;2023-08-06T00:00:28;7.43;;;4.60;;
74632;SDS011;63139;52.018;8.552;2023-08-06T00:02:56;5.10;;;4.13;;
74632;SDS011;63139;52.018;8.552;2023-08-06T00:05:24;6.25;;;4.60;;
74632;SDS011;63139;52.018;8.552;2023-08-06T00:07:52;6.20;;;4.68;;
74632;SDS011;63139;52.018;8.552;2023-08-06T00:10:21;6.85;;;4.65;;
74632;SDS011;63139;52.018;8.552;2023-08-06T00:12:49;8.02;;;5.15;;
74632;SDS011;63139;52.018;8.552;2023-08-06T00:15:17;6.13;;;4.50;;
74632;SDS011;63139;52.018;8.552;2023-08-06T00:17:47;7.50;;;5.00;;
74632;SDS011;63139;52.018;8.552;2023-08-06T00:20:15;6.35;;;5.43;;
74632;SDS011;63139;52.018;8.552;2023-08-06T00:22:43;6.20;;;5.07;;
74632;SDS011;63139;52.018;8.552;2023-08-06T00:25:10;6.85;;;4.75;;
74632;SDS011;63139;52.018;8.552;2023-08-06T00:27:38;8.02;;;5.25;;
74632;SDS011;63139;52.018;8.552;2023-08-06T00:30:07;7.28;;;4.63;;
74632;SDS011;63139;52.018;8.552;2023-08-06T00:32:35;6.60;;;4.95;;
74632;SDS011;63139;52.018;8.552;2023-08-06T00:35:05;6.70;;;4.97;;
74632;SDS011;63139;52.018;8.552;2023-08-06T00:37:33;9.82;;;4.47;;
74632;SDS011;63139;52.018;8.552;2023-08-06T00:40:01;5.88;;;4.10;;
74632;SDS011;63139;52.018;8.552;2023-08-06T00:42:29;6.40;;;4.80;;
74632;SDS011;63139;52.018;8.552;2023-08-06T00:44:57;7.35;;;4.53;;
74632;SDS011;63139;52.018;8.552;2023-08-06T00:47:26;6.18;;;4.70;;
74632;SDS011;63139;52.018;8.552;2023-08-06T00:49:54;7.68;;;5.95;;
74632;SDS011;63139;52.018;8.552;2023-08-06T00:52:23;5.03;;;4.32;;
74632;SDS011;63139;52.018;8.552;2023-08-06T00:54:51;5.30;;;4.80;;
74632;SDS011;63139;52.018;8.552;2023-08-06T00:57:20;7.03;;;5.00;;
74632;SDS011;63139;52.018;8.552;2023-08-06T00:59:52;7.80;;;4.97;;
74632;SDS011;63139;52.018;8.552;2023-08-06T01:02:22;8.73;;;5.55;;
74632;SDS011;63139;52.018;8.552;2023-08-06T01:04:50;8.07;;;5.18;;
74632;SDS011;63139;52.018;8.552;2023-08-06T01:07:21;5.45;;;4.65;;
74632;SDS011;63139;52.018;8.552;2023-08-06T01:09:58;5.95;;;4.80;;
74632;SDS011;63139;52.018;8.552;2023-08-06T01:12:48;7.13;;;4.40;;
74632;SDS011;63139;52.018;8.552;2023-08-06T01:15:22;5.45;;;4.40;;
74632;SDS011;63139;52.018;8.552;2023-08-06T01:17:55;6.95;;;4.25;;
74632;SDS011;63139;52.018;8.552;2023-08-06T01:20:28;6.43;;;5.28;;
74632;SDS011;63139;52.018;8.552;2023-08-06T01:22:56;5.38;;;4.25;;
74632;SDS011;63139;52.018;8.552;2023-08-06T01:25:26;10.07;;;4.97;;
74632;SDS011;63139;52.018;8.552;2023-08-06T01:27:58;6.72;;;5.10;;
74632;SDS011;63139;52.018;8.552;2023-08-06T01:30:36;7.50;;;5.13;;
74632;SDS011;63139;52.018;8.552;2023-08-06T01:33:07;7.60;;;4.82;;
74632;SDS011;63139;52.018;8.552;2023-08-06T01:35:43;6.60;;;5.38;;
74632;SDS011;63139;52.018;8.552;2023-08-06T01:38:13;6.10;;;5.35;;
74632;SDS011;63139;52.018;8.552;2023-08-06T01:40:41;5.93;;;4.88;;
74632;SDS011;63139;52.018;8.552;2023-08-06T01:43:09;5.70;;;5.10;;
74632;SDS011;63139;52.018;8.552;2023-08-06T01:45:37;7.20;;;5.40;;
74632;SDS011;63139;52.018;8.552;2023-08-06T01:48:06;9.45;;;5.85;;
74632;SDS011;63139;52.018;8.552;2023-08-06T01:50:33;6.97;;;5.22;;
74632;SDS011;63139;52.018;8.552;2023-08-06T01:53:03;6.10;;;5.50;;
74632;SDS011;63139;52.018;8.552;2023-08-06T01:55:31;7.47;;;5.30;;
74632;SDS011;63139;52.018;8.552;2023-08-06T01:57:59;6.05;;;4.95;;
74632;SDS011;63139;52.018;8.552;2023-08-06T02:00:27;5.53;;;4.85;;
74632;SDS011;63139;52.018;8.552;2023-08-06T02:02:55;9.75;;;6.00;;
74632;SDS011;63139;52.018;8.552;2023-08-06T02:05:23;7.22;;;5.95;;
74632;SDS011;63139;52.018;8.552;2023-08-06T02:07:51;6.55;;;5.60;;
74632;SDS011;63139;52.018;8.552;2023-08-06T02:10:20;8.18;;;5.72;;
74632;SDS011;63139;52.018;8.552;2023-08-06T02:12:48;10.23;;;6.28;;
74632;SDS011;63139;52.018;8.552;2023-08-06T02:15:16;7.45;;;6.15;;
74632;SDS011;63139;52.018;8.552;2023-08-06T02:17:44;7.40;;;5.15;;
74632;SDS011;63139;52.018;8.552;2023-08-06T02:20:13;8.07;;;5.78;;
74632;SDS011;63139;52.018;8.552;2023-08-06T02:22:41;7.07;;;5.72;;
74632;SDS011;63139;52.018;8.552;2023-08-06T02:25:09;8.07;;;5.72;;
74632;SDS011;63139;52.018;8.552;2023-08-06T02:27:38;10.02;;;6.13;;
74632;SDS011;63139;52.018;8.552;2023-08-06T02:30:06;7.47;;;5.65;;
74632;SDS011;63139;52.018;8.552;2023-08-06T02:32:34;8.35;;;5.93;;
74632;SDS011;63139;52.018;8.552;2023-08-06T02:35:03;8.35;;;6.57;;
74632;SDS011;63139;52.018;8.552;2023-08-06T02:37:33;7.25;;;5.55;;
74632;SDS011;63139;52.018;8.552;2023-08-06T02:40:01;6.97;;;5.30;;
74632;SDS011;63139;52.018;8.552;2023-08-06T02:42:29;8.27;;;6.18;;
74632;SDS011;63139;52.018;8.552;2023-08-06T02:44:59;8.65;;;6.57;;
74632;SDS011;63139;52.018;8.552;2023-08-06T02:47:28;9.63;;;7.10;;
74632;SDS011;63139;52.018;8.552;2023-08-06T02:49:56;11.40;;;8.00;;
74632;SDS011;63139;52.018;8.552;2023-08-06T02:52:23;11.73;;;8.10;;
74632;SDS011;63139;52.018;8.552;2023-08-06T02:54:52;10.57;;;7.70;;
74632;SDS011;63139;52.018;8.552;2023-08-06T02:57:20;12.10;;;7.43;;
74632;SDS011;63139;52.018;8.552;2023-08-06T02:59:50;12.85;;;7.72;;
74632;SDS011;63139;52.018;8.552;2023-08-06T03:02:22;9.90;;;7.00;;
74632;SDS011;63139;52.018;8.552;2023-08-06T03:04:57;12.52;;;7.10;;
74632;SDS011;63139;52.018;8.552;2023-08-06T03:07:30;9.65;;;7.05;;
74632;SDS011;63139;52.018;8.552;2023-08-06T03:12:34;11.38;;;6.25;;
74632;SDS011;63139;52.018;8.552;2023-08-06T03:15:04;10.23;;;5.80;;
74632;SDS011;63139;52.018;8.552;2023-08-06T03:17:34;10.65;;;6.60;;
74632;SDS011;63139;52.018;8.552;2023-08-06T03:20:04;11.73;;;7.53;;
74632;SDS011;63139;52.018;8.552;2023-08-06T03:22:34;9.50;;;6.97;;
74632;SDS011;63139;52.018;8.552;2023-08-06T03:25:03;10.93;;;6.97;;
74632;SDS011;63139;52.018;8.552;2023-08-06T03:27:32;12.80;;;7.78;;
74632;SDS011;63139;52.018;8.552;2023-08-06T03:30:00;11.30;;;6.88;;
74632;SDS011;63139;52.018;8.552;2023-08-06T03:32:30;14.55;;;8.98;;
74632;SDS011;63139;52.018;8.552;2023-08-06T03:35:00;14.43;;;8.20;;
74632;SDS011;63139;52.018;8.552;2023-08-06T03:37:29;14.43;;;7.47;;
74632;SDS011;63139;52.018;8.552;2023-08-06T03:39:57;11.48;;;7.47;;
74632;SDS011;63139;52.018;8.552;2023-08-06T03:42:25;12.10;;;6.95;;
74632;SDS011;63139;52.018;8.552;2023-08-06T03:44:53;16.85;;;8.52;;
74632;SDS011;63139;52.018;8.552;2023-08-06T03:47:21;18.83;;;9.45;;
74632;SDS011;63139;52.018;8.552;2023-08-06T03:49:51;13.50;;;9.00;;
74632;SDS011;63139;52.018;8.552;2023-08-06T03:52:22;15.75;;;9.45;;
74632;SDS011;63139;52.018;8.552;2023-08-06T03:54:50;16.63;;;9.77;;
74632;SDS011;63139;52.018;8.552;2023-08-06T03:57:18;17.67;;;9.80;;
74632;SDS011;63139;52.018;8.552;2023-08-06T03:59:47;21.40;;;10.88;;
74632;SDS011;63139;52.018;8.552;2023-08-06T04:02:23;15.35;;;8.77;;
74632;SDS011;63139;52.018;8.552;2023-08-06T04:04:51;17.45;;;9.73;;
74632;SDS011;63139;52.018;8.552;2023-08-06T04:07:20;23.23;;;11.93;;
74632;SDS011;63139;52.018;8.552;2023-08-06T04:09:56;21.48;;;9.80;;
74632;SDS011;63139;52.018;8.552;2023-08-06T04:12:25;17.20;;;9.02;;
74632;SDS011;63139;52.018;8.552;2023-08-06T04:14:54;14.68;;;9.35;;
74632;SDS011;63139;52.018;8.552;2023-08-06T04:17:22;15.00;;;8.40;;
74632;SDS011;63139;52.018;8.552;2023-08-06T04:19:51;18.55;;;11.60;;
74632;SDS011;63139;52.018;8.552;2023-08-06T04:22:20;16.10;;;10.93;;
74632;SDS011;63139;52.018;8.552;2023-08-06T04:24:49;16.27;;;9.95;;
74632;SDS011;63139;52.018;8.552;2023-08-06T04:27:18;16.35;;;10.48;;
74632;SDS011;63139;52.018;8.552;2023-08-06T04:29:48;16.17;;;10.60;;
74632;SDS011;63139;52.018;8.552;2023-08-06T04:32:16;16.38;;;10.13;;
74632;SDS011;63139;52.018;8.552;2023-08-06T04:34:49;13.45;;;8.57;;
74632;SDS011;63139;52.018;8.552;2023-08-06T04:37:17;16.25;;;9.60;;
74632;SDS011;63139;52.018;8.552;2023-08-06T04:39:45;15.60;;;9.55;;
74632;SDS011;63139;52.018;8.552;2023-08-06T04:42:14;13.05;;;8.98;;
74632;SDS011;63139;52.018;8.552;2023-08-06T04:44:44;11.70;;;7.63;;
74632;SDS011;63139;52.018;8.552;2023-08-06T04:47:11;8.40;;;6.65;;
74632;SDS011;63139;52.018;8.552;2023-08-06T04:49:41;13.13;;;8.85;;
74632;SDS011;63139;52.018;8.552;2023-08-06T04:52:09;11.65;;;8.27;;
74632;SDS011;63139;52.018;8.552;2023-08-06T04:54:37;10.82;;;8.73;;
74632;SDS011;63139;52.018;8.552;2023-08-06T04:57:05;11.13;;;8.50;;
74632;SDS011;63139;52.018;8.552;2023-08-06T04:59:33;14.05;;;8.82;;
74632;SDS011;63139;52.018;8.552;2023-08-06T05:02:03;12.43;;;9.00;;
74632;SDS011;63139;52.018;8.552;2023-08-06T05:04:31;13.50;;;7.90;;
74632;SDS011;63139;52.018;8.552;2023-08-06T05:06:59;11.93;;;8.38;;
74632;SDS011;63139;52.018;8.552;2023-08-06T05:09:28;11.65;;;7.70;;
74632;SDS011;63139;52.018;8.552;2023-08-06T05:11:56;11.43;;;8.43;;
74632;SDS011;63139;52.018;8.552;2023-08-06T05:14:23;9.60;;;7.45;;
74632;SDS011;63139;52.018;8.552;2023-08-06T05:16:51;6.82;;;6.10;;
74632;SDS011;63139;52.018;8.552;2023-08-06T05:19:21;9.50;;;7.32;;
74632;SDS011;63139;52.018;8.552;2023-08-06T05:21:49;10.38;;;6.95;;
74632;SDS011;63139;52.018;8.552;2023-08-06T05:24:17;8.38;;;6.72;;
74632;SDS011;63139;52.018;8.552;2023-08-06T05:26:48;9.10;;;6.85;;
74632;SDS011;63139;52.018;8.552;2023-08-06T05:29:16;8.48;;;5.70;;
74632;SDS011;63139;52.018;8.552;2023-08-06T05:31:44;8.77;;;6.50;;
74632;SDS011;63139;52.018;8.552;2023-08-06T05:34:12;10.50;;;6.47;;
74632;SDS011;63139;52.018;8.552;2023-08-06T05:36:41;7.57;;;5.97;;
74632;SDS011;63139;52.018;8.552;2023-08-06T05:39:09;5.97;;;4.85;;
74632;SDS011;63139;52.018;8.552;2023-08-06T05:41:37;8.07;;;5.18;;
74632;SDS011;63139;52.018;8.552;2023-08-06T05:44:05;6.55;;;5.20;;
74632;SDS011;63139;52.018;8.552;2023-08-06T05:46:33;6.10;;;4.85;;
74632;SDS011;63139;52.018;8.552;2023-08-06T05:49:01;4.93;;;4.43;;
74632;SDS011;63139;52.018;8.552;2023-08-06T05:51:30;5.30;;;3.97;;
74632;SDS011;63139;52.018;8.552;2023-08-06T05:53:59;6.95;;;4.68;;
74632;SDS011;63139;52.018;8.552;2023-08-06T05:56:27;6.65;;;4.82;;
74632;SDS011;63139;52.018;8.552;2023-08-06T05:58:55;5.20;;;4.55;;
74632;SDS011;63139;52.018;8.552;2023-08-06T06:01:23;5.88;;;4.85;;
74632;SDS011;63139;52.018;8.552;2023-08-06T06:03:51;8.25;;;4.53;;
74632;SDS011;63139;52.018;8.552;2023-08-06T06:06:19;4.35;;;3.95;;
74632;SDS011;63139;52.018;8.552;2023-08-06T06:08:47;5.65;;;4.25;;
74632;SDS011;63139;52.018;8.552;2023-08-06T06:11:17;8.18;;;4.97;;
74632;SDS011;63139;52.018;8.552;2023-08-06T06:13:48;5.10;;;4.60;;
74632;SDS011;63139;52.018;8.552;2023-08-06T06:16:18;6.80;;;4.45;;
74632;SDS011;63139;52.018;8.552;2023-08-06T06:18:46;5.50;;;4.97;;
74632;SDS011;63139;52.018;8.552;2023-08-06T06:21:14;7.28;;;4.80;;
74632;SDS011;63139;52.018;8.552;2023-08-06T06:23:42;5.20;;;4.38;;
74632;SDS011;63139;52.018;8.552;2023-08-06T06:26:10;6.72;;;4.53;;
74632;SDS011;63139;52.018;8.552;2023-08-06T06:28:40;5.60;;;4.22;;
74632;SDS011;63139;52.018;8.552;2023-08-06T06:31:08;5.13;;;4.63;;
74632;SDS011;63139;52.018;8.552;2023-08-06T06:33:36;4.28;;;3.88;;
74632;SDS011;63139;52.018;8.552;2023-08-06T06:36:04;7.28;;;4.45;;
74632;SDS011;63139;52.018;8.552;2023-08-06T06:38:34;7.30;;;4.70;;
74632;SDS011;63139;52.018;8.552;2023-08-06T06:41:02;7.40;;;4.55;;
74632;SDS011;63139;52.018;8.552;2023-08-06T06:43:30;5.05;;;4.30;;
74632;SDS011;63139;52.018;8.552;2023-08-06T06:46:01;4.97;;;4.13;;
74632;SDS011;63139;52.018;8.552;2023-08-06T06:48:31;7.18;;;4.10;;
74632;SDS011;63139;52.018;8.552;2023-08-06T06:50:59;5.00;;;4.10;;
74632;SDS011;63139;52.018;8.552;2023-08-06T06:53:27;4.20;;;3.80;;
74632;SDS011;63139;52.018;8.552;2023-08-06T06:55:56;4.75;;;4.25;;
74632;SDS011;63139;52.018;8.552;2023-08-06T06:58:28;6.53;;;5.18;;
74632;SDS011;63139;52.018;8.552;2023-08-06T07:00:57;5.10;;;3.78;;
74632;SDS011;63139;52.018;8.552;2023-08-06T07:03:26;4.85;;;4.40;;
74632;SDS011;63139;52.018;8.552;2023-08-06T07:05:56;5.03;;;3.88;;
74632;SDS011;63139;52.018;8.552;2023-08-06T07:08:25;4.05;;;3.65;;
74632;SDS011;63139;52.018;8.552;2023-08-06T07:10:59;6.00;;;4.45;;
74632;SDS011;63139;52.018;8.552;2023-08-06T07:13:28;4.30;;;3.90;;
74632;SDS011;63139;52.018;8.552;2023-08-06T07:15:57;4.35;;;3.78;;
74632;SDS011;63139;52.018;8.552;2023-08-06T07:18:25;4.50;;;3.70;;
74632;SDS011;63139;52.018;8.552;2023-08-06T07:20:54;3.78;;;3.45;;
74632;SDS011;63139;52.018;8.552;2023-08-06T07:23:23;3.70;;;3.40;;
74632;SDS011;63139;52.018;8.552;2023-08-06T07:25:52;4.63;;;3.10;;
74632;SDS011;63139;52.018;8.552;2023-08-06T07:28:20;3.70;;;3.40;;
74632;SDS011;63139;52.018;8.552;2023-08-06T07:30:48;3.60;;;2.95;;
74632;SDS011;63139;52.018;8.552;2023-08-06T07:33:16;3.88;;;3.10;;
74632;SDS011;63139;52.018;8.552;2023-08-06T07:35:46;4.72;;;3.70;;
74632;SDS011;63139;52.018;8.552;2023-08-06T07:38:14;3.63;;;3.30;;
74632;SDS011;63139;52.018;8.552;2023-08-06T07:40:42;7.20;;;3.70;;
74632;SDS011;63139;52.018;8.552;2023-08-06T07:43:10;3.58;;;3.28;;
74632;SDS011;63139;52.018;8.552;2023-08-06T07:45:38;4.70;;;3.83;;
74632;SDS011;63139;52.018;8.552;2023-08-06T07:48:06;6.88;;;3.42;;
74632;SDS011;63139;52.018;8.552;2023-08-06T07:50:34;5.72;;;3.63;;
74632;SDS011;63139;52.018;8.552;2023-08-06T07:53:03;6.28;;;3.75;;
74632;SDS011;63139;52.018;8.552;2023-08-06T07:55:32;5.07;;;3.50;;
74632;SDS011;63139;52.018;8.552;2023-08-06T07:58:00;4.60;;;3.25;;
74632;SDS011;63139;52.018;8.552;2023-08-06T08:00:28;4.53;;;3.40;;
74632;SDS011;63139;52.018;8.552;2023-08-06T08:02:56;3.83;;;3.10;;
74632;SDS011;63139;52.018;8.552;2023-08-06T08:05:24;4.05;;;3.00;;
74632;SDS011;63139;52.018;8.552;2023-08-06T08:07:52;3.10;;;2.80;;
74632;SDS011;63139;52.018;8.552;2023-08-06T08:10:22;3.85;;;2.80;;
74632;SDS011;63139;52.018;8.552;2023-08-06T08:12:50;4.68;;;3.10;;
74632;SDS011;63139;52.018;8.552;2023-08-06T08:15:18;3.60;;;2.90;;
74632;SDS011;63139;52.018;8.552;2023-08-06T08:17:46;5.60;;;2.67;;
74632;SDS011;63139;52.018;8.552;2023-08-06T08:20:16;3.58;;;2.65;;
74632;SDS011;63139;52.018;8.552;2023-08-06T08:22:44;3.20;;;2.90;;
74632;SDS011;63139;52.018;8.552;2023-08-06T08:25:12;2.75;;;2.55;;
74632;SDS011;63139;52.018;8.552;2023-08-06T08:27:41;4.28;;;2.80;;
74632;SDS011;63139;52.018;8.552;2023-08-06T08:30:10;3.05;;;2.72;;
74632;SDS011;63139;52.018;8.552;2023-08-06T08:32:38;4.22;;;2.50;;
74632;SDS011;63139;52.018;8.552;2023-08-06T08:35:06;3.13;;;2.50;;
74632;SDS011;63139;52.018;8.552;2023-08-06T08:37:35;2.80;;;2.60;;
74632;SDS011;63139;52.018;8.552;2023-08-06T08:40:04;2.90;;;2.60;;
74632;SDS011;63139;52.018;8.552;2023-08-06T08:42:33;2.83;;;2.63;;
74632;SDS011;63139;52.018;8.552;2023-08-06T08:45:02;4.22;;;2.90;;
74632;SDS011;63139;52.018;8.552;2023-08-06T08:47:34;3.45;;;2.42;;
74632;SDS011;63139;52.018;8.552;2023-08-06T08:50:04;2.65;;;2.45;;
74632;SDS011;63139;52.018;8.552;2023-08-06T08:52:34;2.90;;;2.60;;
74632;SDS011;63139;52.018;8.552;2023-08-06T08:55:03;2.53;;;2.33;;
74632;SDS011;63139;52.018;8.552;2023-08-06T08:57:32;2.80;;;2.40;;
74632;SDS011;63139;52.018;8.552;2023-08-06T09:00:00;2.58;;;2.38;;
74632;SDS011;63139;52.018;8.552;2023-08-06T09:02:29;3.15;;;2.20;;
74632;SDS011;63139;52.018;8.552;2023-08-06T09:05:00;2.50;;;2.20;;
74632;SDS011;63139;52.018;8.552;2023-08-06T09:07:31;2.67;;;2.28;;
74632;SDS011;63139;52.018;8.552;2023-08-06T09:10:02;2.92;;;2.22;;
74632;SDS011;63139;52.018;8.552;2023-08-06T09:12:32;3.25;;;2.50;;
74632;SDS011;63139;52.018;8.552;2023-08-06T09:14:59;2.45;;;2.25;;
74632;SDS011;63139;52.018;8.552;2023-08-06T09:17:31;3.75;;;2.35;;
74632;SDS011;63139;52.018;8.552;2023-08-06T09:19:59;1.98;;;1.83;;
74632;SDS011;63139;52.018;8.552;2023-08-06T09:22:35;3.45;;;2.70;;
74632;SDS011;63139;52.018;8.552;2023-08-06T09:25:04;2.30;;;2.10;;
74632;SDS011;63139;52.018;8.552;2023-08-06T09:27:36;11.25;;;2.53;;
74632;SDS011;63139;52.018;8.552;2023-08-06T09:30:05;1.80;;;1.70;;
74632;SDS011;63139;52.018;8.552;2023-08-06T09:32:48;2.55;;;1.90;;
74632;SDS011;63139;52.018;8.552;2023-08-06T09:35:18;1.73;;;1.63;;
74632;SDS011;63139;52.018;8.552;2023-08-06T09:37:46;2.67;;;2.10;;
74632;SDS011;63139;52.018;8.552;2023-08-06T09:40:24;3.40;;;1.83;;
74632;SDS011;63139;52.018;8.552;2023-08-06T09:42:54;2.30;;;2.10;;
74632;SDS011;63139;52.018;8.552;2023-08-06T09:45:22;2.22;;;1.90;;
74632;SDS011;63139;52.018;8.552;2023-08-06T09:47:51;1.98;;;1.80;;
74632;SDS011;63139;52.018;8.552;2023-08-06T09:50:25;2.15;;;1.80;;
74632;SDS011;63139;52.018;8.552;2023-08-06T09:52:56;2.08;;;1.88;;
74632;SDS011;63139;52.018;8.552;2023-08-06T09:55:25;1.75;;;1.65;;
74632;SDS011;63139;52.018;8.552;2023-08-06T09:57:53;1.80;;;1.70;;
74632;SDS011;63139;52.018;8.552;2023-08-06T10:00:22;1.90;;;1.60;;
74632;SDS011;63139;52.018;8.552;2023-08-06T10:02:51;1.42;;;1.33;;
74632;SDS011;63139;52.018;8.552;2023-08-06T10:05:22;1.40;;;1.30;;
74632;SDS011;63139;52.018;8.552;2023-08-06T10:07:51;1.50;;;1.40;;
74632;SDS011;63139;52.018;8.552;2023-08-06T10:10:20;4.00;;;1.70;;
74632;SDS011;63139;52.018;8.552;2023-08-06T10:12:49;1.83;;;1.70;;
74632;SDS011;63139;52.018;8.552;2023-08-06T10:15:20;2.03;;;1.83;;
74632;SDS011;63139;52.018;8.552;2023-08-06T10:17:56;3.05;;;1.80;;
74632;SDS011;63139;52.018;8.552;2023-08-06T10:20:25;3.13;;;1.60;;
74632;SDS011;63139;52.018;8.552;2023-08-06T10:23:00;2.60;;;1.83;;
74632;SDS011;63139;52.018;8.552;2023-08-06T10:25:32;2.15;;;1.48;;
74632;SDS011;63139;52.018;8.552;2023-08-06T10:28:06;1.92;;;1.40;;
74632;SDS011;63139;52.018;8.552;2023-08-06T10:30:46;1.40;;;1.30;;
74632;SDS011;63139;52.018;8.552;2023-08-06T10:33:16;1.55;;;1.40;;
74632;SDS011;63139;52.018;8.552;2023-08-06T10:35:48;1.65;;;1.50;;
74632;SDS011;63139;52.018;8.552;2023-08-06T10:38:21;1.98;;;1.60;;
74632;SDS011;63139;52.018;8.552;2023-08-06T10:41:00;1.60;;;1.50;;
74632;SDS011;63139;52.018;8.552;2023-08-06T10:43:31;2.50;;;1.90;;
74632;SDS011;63139;52.018;8.552;2023-08-06T10:46:01;1.60;;;1.50;;
74632;SDS011;63139;52.018;8.552;2023-08-06T10:48:34;3.28;;;1.40;;
74632;SDS011;63139;52.018;8.552;2023-08-06T10:51:08;1.92;;;1.60;;
74632;SDS011;63139;52.018;8.552;2023-08-06T10:53:38;1.98;;;1.70;;
74632;SDS011;63139;52.018;8.552;2023-08-06T10:56:13;2.10;;;1.70;;
74632;SDS011;63139;52.018;8.552;2023-08-06T10:58:41;2.03;;;1.83;;
74632;SDS011;63139;52.018;8.552;2023-08-06T11:01:10;1.90;;;1.73;;
74632;SDS011;63139;52.018;8.552;2023-08-06T11:03:40;4.57;;;2.00;;
74632;SDS011;63139;52.018;8.552;2023-08-06T11:06:09;1.80;;;1.70;;
74632;SDS011;63139;52.018;8.552;2023-08-06T11:08:42;2.30;;;2.00;;
74632;SDS011;63139;52.018;8.552;2023-08-06T11:11:15;1.75;;;1.63;;
74632;SDS011;63139;52.018;8.552;2023-08-06T11:13:45;1.77;;;1.67;;
74632;SDS011;63139;52.018;8.552;2023-08-06T11:16:14;1.92;;;1.70;;
74632;SDS011;63139;52.018;8.552;2023-08-06T11:18:45;2.13;;;1.70;;
74632;SDS011;63139;52.018;8.552;2023-08-06T11:21:14;1.88;;;1.77;;
74632;SDS011;63139;52.018;8.552;2023-08-06T11:23:45;2.00;;;1.80;;
74632;SDS011;63139;52.018;8.552;2023-08-06T11:26:18;2.28;;;1.80;;
74632;SDS011;63139;52.018;8.552;2023-08-06T11:28:46;1.90;;;1.80;;
74632;SDS011;63139;52.018;8.552;2023-08-06T11:31:18;1.90;;;1.80;;
74632;SDS011;63139;52.018;8.552;2023-08-06T11:33:48;3.63;;;1.65;;
74632;SDS011;63139;52.018;8.552;2023-08-06T11:36:28;3.33;;;1.70;;
74632;SDS011;63139;52.018;8.552;2023-08-06T11:38:56;1.77;;;1.50;;
74632;SDS011;63139;52.018;8.552;2023-08-06T11:41:24;2.90;;;1.67;;
74632;SDS011;63139;52.018;8.552;2023-08-06T11:43:52;2.03;;;1.92;;
74632;SDS011;63139;52.018;8.552;2023-08-06T11:46:20;2.30;;;1.65;;
74632;SDS011;63139;52.018;8.552;2023-08-06T11:48:54;1.98;;;1.83;;
74632;SDS011;63139;52.018;8.552;2023-08-06T11:51:23;1.83;;;1.67;;
74632;SDS011;63139;52.018;8.552;2023-08-06T11:53:55;2.10;;;1.90;;
74632;SDS011;63139;52.018;8.552;2023-08-06T11:56:24;2.22;;;1.75;;
74632;SDS011;63139;52.018;8.552;2023-08-06T11:58:54;1.70;;;1.60;;
74632;SDS011;63139;52.018;8.552;2023-08-06T12:01:23;1.67;;;1.58;;
74632;SDS011;63139;52.018;8.552;2023-08-06T12:03:51;1.80;;;1.60;;
74632;SDS011;63139;52.018;8.552;2023-08-06T12:06:20;1.75;;;1.60;;
74632;SDS011;63139;52.018;8.552;2023-08-06T12:08:50;2.53;;;1.70;;
74632;SDS011;63139;52.018;8.552;2023-08-06T12:11:20;3.15;;;1.92;;
74632;SDS011;63139;52.018;8.552;2023-08-06T12:13:50;2.72;;;2.10;;
74632;SDS011;63139;52.018;8.552;2023-08-06T12:16:18;2.00;;;1.90;;
74632;SDS011;63139;52.018;8.552;2023-08-06T12:18:48;2.75;;;2.10;;
74632;SDS011;63139;52.018;8.552;2023-08-06T12:21:16;2.60;;;1.80;;
74632;SDS011;63139;52.018;8.552;2023-08-06T12:23:46;4.03;;;1.75;;
74632;SDS011;63139;52.018;8.552;2023-08-06T12:26:14;2.53;;;1.80;;
74632;SDS011;63139;52.018;8.552;2023-08-06T12:28:42;2.53;;;2.30;;
74632;SDS011;63139;52.018;8.552;2023-08-06T12:31:10;2.00;;;1.90;;
74632;SDS011;63139;52.018;8.552;2023-08-06T12:33:38;1.98;;;1.70;;
74632;SDS011;63139;52.018;8.552;2023-08-06T12:36:06;2.47;;;1.83;;
74632;SDS011;63139;52.018;8.552;2023-08-06T12:38:34;2.25;;;1.50;;
74632;SDS011;63139;52.018;8.552;2023-08-06T12:41:04;2.38;;;1.90;;
74632;SDS011;63139;52.018;8.552;2023-08-06T12:43:32;2.03;;;1.70;;
74632;SDS011;63139;52.018;8.552;2023-08-06T12:46:00;2.67;;;1.70;;
74632;SDS011;63139;52.018;8.552;2023-08-06T12:48:28;1.70;;;1.60;;
74632;SDS011;63139;52.018;8.552;2023-08-06T12:50:56;3.58;;;1.73;;
74632;SDS011;63139;52.018;8.552;2023-08-06T12:53:24;1.70;;;1.60;;
74632;SDS011;63139;52.018;8.552;2023-08-06T12:55:52;1.88;;;1.60;;
74632;SDS011;63139;52.018;8.552;2023-08-06T12:58:22;1.63;;;1.52;;
74632;SDS011;63139;52.018;8.552;2023-08-06T13:00:50;1.70;;;1.60;;
74632;SDS011;63139;52.018;8.552;2023-08-06T13:03:18;2.25;;;1.80;;
74632;SDS011;63139;52.018;8.552;2023-08-06T13:05:46;1.70;;;1.60;;
74632;SDS011;63139;52.018;8.552;2023-08-06T13:08:14;2.45;;;1.98;;
74632;SDS011;63139;52.018;8.552;2023-08-06T13:10:42;2.58;;;1.60;;
74632;SDS011;63139;52.018;8.552;2023-08-06T13:13:10;2.00;;;1.80;;
74632;SDS011;63139;52.018;8.552;2023-08-06T13:15:39;1.63;;;1.52;;
74632;SDS011;63139;52.018;8.552;2023-08-06T13:18:07;1.60;;;1.50;;
74632;SDS011;63139;52.018;8.552;2023-08-06T13:20:37;1.70;;;1.60;;
74632;SDS011;63139;52.018;8.552;2023-08-06T13:23:06;2.42;;;1.63;;
74632;SDS011;63139;52.018;8.552;2023-08-06T13:25:34;3.45;;;1.50;;
74632;SDS011;63139;52.018;8.552;2023-08-06T13:28:03;2.72;;;1.80;;
74632;SDS011;63139;52.018;8.552;2023-08-06T13:30:31;1.75;;;1.60;;
74632;SDS011;63139;52.018;8.552;2023-08-06T13:33:03;1.90;;;1.60;;
74632;SDS011;63139;52.018;8.552;2023-08-06T13:35:33;1.63;;;1.52;;
74632;SDS011;63139;52.018;8.552;2023-08-06T13:38:01;2.50;;;1.80;;
74632;SDS011;63139;52.018;8.552;2023-08-06T13:40:31;1.92;;;1.50;;
74632;SDS011;63139;52.018;8.552;2023-08-06T13:43:00;2.10;;;1.90;;
74632;SDS011;63139;52.018;8.552;2023-08-06T13:45:28;2.67;;;1.80;;
74632;SDS011;63139;52.018;8.552;2023-08-06T13:47:57;3.03;;;1.88;;
74632;SDS011;63139;52.018;8.552;2023-08-06T13:50:27;2.00;;;1.80;;
74632;SDS011;63139;52.018;8.552;2023-08-06T13:52:55;2.60;;;1.95;;
74632;SDS011;63139;52.018;8.552;2023-08-06T13:55:23;3.65;;;2.38;;
74632;SDS011;63139;52.018;8.552;2023-08-06T13:57:53;4.40;;;2.63;;
74632;SDS011;63139;52.018;8.552;2023-08-06T14:00:21;5.00;;;2.45;;
74632;SDS011;63139;52.018;8.552;2023-08-06T14:02:49;3.75;;;2.50;;
74632;SDS011;63139;52.018;8.552;2023-08-06T14:05:17;3.28;;;2.40;;
74632;SDS011;63139;52.018;8.552;2023-08-06T14:07:47;3.38;;;2.13;;
74632;SDS011;63139;52.018;8.552;2023-08-06T14:10:16;3.88;;;2.58;;
74632;SDS011;63139;52.018;8.552;2023-08-06T14:12:46;5.40;;;2.47;;
74632;SDS011;63139;52.018;8.552;2023-08-06T14:15:30;2.50;;;2.30;;
74632;SDS011;63139;52.018;8.552;2023-08-06T14:17:59;2.05;;;1.85;;
74632;SDS011;63139;52.018;8.552;2023-08-06T14:20:27;6.18;;;1.92;;
74632;SDS011;63139;52.018;8.552;2023-08-06T14:22:57;1.98;;;1.73;;
74632;SDS011;63139;52.018;8.552;2023-08-06T14:25:25;1.80;;;1.40;;
74632;SDS011;63139;52.018;8.552;2023-08-06T14:27:53;2.55;;;1.55;;
74632;SDS011;63139;52.018;8.552;2023-08-06T14:30:21;1.60;;;1.50;;
74632;SDS011;63139;52.018;8.552;2023-08-06T14:32:49;1.60;;;1.50;;
74632;SDS011;63139;52.018;8.552;2023-08-06T14:35:17;2.00;;;1.80;;
74632;SDS011;63139;52.018;8.552;2023-08-06T14:37:45;2.33;;;2.03;;
74632;SDS011;63139;52.018;8.552;2023-08-06T14:40:15;2.20;;;2.00;;
74632;SDS011;63139;52.018;8.552;2023-08-06T14:42:43;3.50;;;2.53;;
74632;SDS011;63139;52.018;8.552;2023-08-06T14:45:11;3.90;;;2.50;;
74632;SDS011;63139;52.018;8.552;2023-08-06T14:47:39;4.30;;;2.60;;
74632;SDS011;63139;52.018;8.552;2023-08-06T14:50:07;4.35;;;2.75;;
74632;SDS011;63139;52.018;8.552;2023-08-06T14:52:36;3.28;;;2.60;;
74632;SDS011;63139;52.018;8.552;2023-08-06T14:55:04;4.80;;;2.85;;
74632;SDS011;63139;52.018;8.552;2023-08-06T14:57:34;4.18;;;2.90;;
74632;SDS011;63139;52.018;8.552;2023-08-06T15:00:02;3.00;;;2.70;;